sensor_id;sensor_type;location;lat;lon;timestamp;P1;durP1;ratioP1;P2;durP2;ratioP2
16354;SDS011;8287;51.644;8.494;2023-03-24T00:01:48;2.97;;;1.30;;
16354;SDS011;8287;51.644;8.494;2023-03-24T00:04:15;3.85;;;1.55;;
16354;SDS011;8287;51.644;8.494;2023-03-24T00:06:42;1.48;;;1.10;;
16354;SDS011;8287;51.644;8.494;2023-03-24T00:09:09;3.90;;;1.27;;
16354;SDS011;8287;51.644;8.494;2023-03-24T00:11:37;2.28;;;1.23;;
16354;SDS011;8287;51.644;8.494;2023-03-24T00:14:04;3.97;;;1.27;;
16354;SDS011;8287;51.644;8.494;2023-03-24T00:16:31;4.35;;;1.38;;
16354;SDS011;8287;51.644;8.494;2023-03-24T00:18:59;1.58;;;1.10;;
16354;SDS011;8287;51.644;8.494;2023-03-24T00:21:26;2.17;;;1.27;;
16354;SDS011;8287;51.644;8.494;2023-03-24T00:23:53;1.25;;;1.00;;
16354;SDS011;8287;51.644;8.494;2023-03-24T00:26:22;1.45;;;1.15;;
16354;SDS011;8287;51.644;8.494;2023-03-24T00:28:51;1.30;;;0.88;;
16354;SDS011;8287;51.644;8.494;2023-03-24T00:31:18;1.30;;;1.20;;
16354;SDS011;8287;51.644;8.494;2023-03-24T00:33:45;1.85;;;1.15;;
16354;SDS011;8287;51.644;8.494;2023-03-24T00:36:15;1.98;;;0.90;;
16354;SDS011;8287;51.644;8.494;2023-03-24T00:38:43;2.03;;;1.15;;
16354;SDS011;8287;51.644;8.494;2023-03-24T00:41:11;1.30;;;1.20;;
16354;SDS011;8287;51.644;8.494;2023-03-24T00:43:38;1.60;;;1.08;;
16354;SDS011;8287;51.644;8.494;2023-03-24T00:46:07;2.65;;;1.20;;
16354;SDS011;8287;51.644;8.494;2023-03-24T00:48:38;1.20;;;1.10;;
16354;SDS011;8287;51.644;8.494;2023-03-24T00:51:08;1.30;;;1.20;;
16354;SDS011;8287;51.644;8.494;2023-03-24T00:53:35;1.42;;;1.33;;
16354;SDS011;8287;51.644;8.494;2023-03-24T00:56:07;2.33;;;1.80;;
16354;SDS011;8287;51.644;8.494;2023-03-24T00:58:35;0.95;;;0.95;;
16354;SDS011;8287;51.644;8.494;2023-03-24T01:01:02;1.52;;;1.10;;
16354;SDS011;8287;51.644;8.494;2023-03-24T01:03:32;1.08;;;0.98;;
16354;SDS011;8287;51.644;8.494;2023-03-24T01:05:59;1.67;;;0.80;;
16354;SDS011;8287;51.644;8.494;2023-03-24T01:08:27;1.60;;;0.95;;
16354;SDS011;8287;51.644;8.494;2023-03-24T01:10:53;1.65;;;0.90;;
16354;SDS011;8287;51.644;8.494;2023-03-24T01:13:22;1.13;;;1.02;;
16354;SDS011;8287;51.644;8.494;2023-03-24T01:15:50;2.58;;;1.27;;
16354;SDS011;8287;51.644;8.494;2023-03-24T01:18:18;2.65;;;1.10;;
16354;SDS011;8287;51.644;8.494;2023-03-24T01:20:46;1.60;;;1.50;;
16354;SDS011;8287;51.644;8.494;2023-03-24T01:23:15;1.98;;;1.27;;
16354;SDS011;8287;51.644;8.494;2023-03-24T01:25:44;2.70;;;1.52;;
16354;SDS011;8287;51.644;8.494;2023-03-24T01:28:12;2.17;;;1.30;;
16354;SDS011;8287;51.644;8.494;2023-03-24T01:30:40;2.40;;;1.50;;
16354;SDS011;8287;51.644;8.494;2023-03-24T01:33:07;1.75;;;1.17;;
16354;SDS011;8287;51.644;8.494;2023-03-24T01:35:34;1.48;;;1.38;;
16354;SDS011;8287;51.644;8.494;2023-03-24T01:38:05;1.63;;;1.35;;
16354;SDS011;8287;51.644;8.494;2023-03-24T01:40:33;3.00;;;1.38;;
16354;SDS011;8287;51.644;8.494;2023-03-24T01:43:01;1.63;;;1.40;;
16354;SDS011;8287;51.644;8.494;2023-03-24T01:45:42;2.47;;;1.35;;
16354;SDS011;8287;51.644;8.494;2023-03-24T01:48:25;1.80;;;1.40;;
16354;SDS011;8287;51.644;8.494;2023-03-24T01:50:57;1.58;;;1.48;;
16354;SDS011;8287;51.644;8.494;2023-03-24T01:53:28;3.00;;;1.52;;
16354;SDS011;8287;51.644;8.494;2023-03-24T01:55:57;1.65;;;1.50;;
16354;SDS011;8287;51.644;8.494;2023-03-24T01:58:26;1.83;;;1.58;;
16354;SDS011;8287;51.644;8.494;2023-03-24T02:00:54;2.97;;;1.77;;
16354;SDS011;8287;51.644;8.494;2023-03-24T02:03:22;2.33;;;1.40;;
16354;SDS011;8287;51.644;8.494;2023-03-24T02:05:54;1.60;;;1.50;;
16354;SDS011;8287;51.644;8.494;2023-03-24T02:08:23;2.22;;;1.52;;
16354;SDS011;8287;51.644;8.494;2023-03-24T02:10:55;1.50;;;1.40;;
16354;SDS011;8287;51.644;8.494;2023-03-24T02:13:23;2.15;;;1.30;;
16354;SDS011;8287;51.644;8.494;2023-03-24T02:15:53;2.58;;;1.40;;
16354;SDS011;8287;51.644;8.494;2023-03-24T02:18:31;1.77;;;1.58;;
16354;SDS011;8287;51.644;8.494;2023-03-24T02:21:27;2.08;;;1.88;;
16354;SDS011;8287;51.644;8.494;2023-03-24T02:27:43;2.08;;;1.48;;
16354;SDS011;8287;51.644;8.494;2023-03-24T02:30:31;1.50;;;1.40;;
16354;SDS011;8287;51.644;8.494;2023-03-24T02:39:32;3.65;;;2.00;;
16354;SDS011;8287;51.644;8.494;2023-03-24T02:42:20;2.00;;;1.80;;
16354;SDS011;8287;51.644;8.494;2023-03-24T02:44:59;1.70;;;1.50;;
16354;SDS011;8287;51.644;8.494;2023-03-24T02:47:34;2.00;;;1.73;;
16354;SDS011;8287;51.644;8.494;2023-03-24T02:50:11;2.53;;;2.33;;
16354;SDS011;8287;51.644;8.494;2023-03-24T02:52:44;2.78;;;1.83;;
16354;SDS011;8287;51.644;8.494;2023-03-24T02:55:16;2.72;;;1.95;;
16354;SDS011;8287;51.644;8.494;2023-03-24T02:57:48;2.45;;;1.90;;
16354;SDS011;8287;51.644;8.494;2023-03-24T03:00:21;2.30;;;1.60;;
16354;SDS011;8287;51.644;8.494;2023-03-24T03:02:56;3.05;;;2.00;;
16354;SDS011;8287;51.644;8.494;2023-03-24T03:05:28;2.25;;;1.67;;
16354;SDS011;8287;51.644;8.494;2023-03-24T03:08:00;4.68;;;1.80;;
16354;SDS011;8287;51.644;8.494;2023-03-24T03:10:30;1.98;;;1.70;;
16354;SDS011;8287;51.644;8.494;2023-03-24T03:13:00;1.67;;;1.58;;
16354;SDS011;8287;51.644;8.494;2023-03-24T03:15:33;3.10;;;1.77;;
16354;SDS011;8287;51.644;8.494;2023-03-24T03:18:04;1.70;;;1.60;;
16354;SDS011;8287;51.644;8.494;2023-03-24T03:20:37;1.70;;;1.60;;
16354;SDS011;8287;51.644;8.494;2023-03-24T03:23:15;1.50;;;1.40;;
16354;SDS011;8287;51.644;8.494;2023-03-24T03:25:46;1.98;;;1.80;;
16354;SDS011;8287;51.644;8.494;2023-03-24T03:28:17;4.65;;;1.83;;
16354;SDS011;8287;51.644;8.494;2023-03-24T03:30:48;2.45;;;1.83;;
16354;SDS011;8287;51.644;8.494;2023-03-24T03:33:19;2.17;;;1.38;;
16354;SDS011;8287;51.644;8.494;2023-03-24T03:35:51;4.10;;;2.10;;
16354;SDS011;8287;51.644;8.494;2023-03-24T03:38:23;2.00;;;1.77;;
16354;SDS011;8287;51.644;8.494;2023-03-24T03:40:59;1.75;;;1.65;;
16354;SDS011;8287;51.644;8.494;2023-03-24T03:43:28;2.45;;;2.15;;
16354;SDS011;8287;51.644;8.494;2023-03-24T03:45:56;2.97;;;1.98;;
16354;SDS011;8287;51.644;8.494;2023-03-24T03:48:24;3.83;;;2.13;;
16354;SDS011;8287;51.644;8.494;2023-03-24T03:50:51;2.28;;;1.88;;
16354;SDS011;8287;51.644;8.494;2023-03-24T03:53:19;2.08;;;1.95;;
16354;SDS011;8287;51.644;8.494;2023-03-24T03:55:51;2.63;;;1.80;;
16354;SDS011;8287;51.644;8.494;2023-03-24T03:58:22;2.60;;;1.80;;
16354;SDS011;8287;51.644;8.494;2023-03-24T04:00:53;2.33;;;1.80;;
16354;SDS011;8287;51.644;8.494;2023-03-24T04:03:28;2.60;;;2.10;;
16354;SDS011;8287;51.644;8.494;2023-03-24T04:06:06;2.40;;;1.90;;
16354;SDS011;8287;51.644;8.494;2023-03-24T04:08:45;1.92;;;1.83;;
16354;SDS011;8287;51.644;8.494;2023-03-24T04:14:10;2.58;;;1.75;;
16354;SDS011;8287;51.644;8.494;2023-03-24T04:16:55;1.70;;;1.60;;
16354;SDS011;8287;51.644;8.494;2023-03-24T04:19:37;2.15;;;1.70;;
16354;SDS011;8287;51.644;8.494;2023-03-24T04:22:23;2.20;;;1.40;;
16354;SDS011;8287;51.644;8.494;2023-03-24T04:24:58;2.63;;;1.90;;
16354;SDS011;8287;51.644;8.494;2023-03-24T04:27:37;2.35;;;2.15;;
16354;SDS011;8287;51.644;8.494;2023-03-24T04:30:13;2.20;;;1.77;;
16354;SDS011;8287;51.644;8.494;2023-03-24T04:32:47;2.78;;;1.80;;
16354;SDS011;8287;51.644;8.494;2023-03-24T04:35:17;1.75;;;1.65;;
16354;SDS011;8287;51.644;8.494;2023-03-24T04:37:50;5.35;;;2.13;;
16354;SDS011;8287;51.644;8.494;2023-03-24T04:40:18;3.10;;;1.98;;
16354;SDS011;8287;51.644;8.494;2023-03-24T04:42:47;3.05;;;1.88;;
16354;SDS011;8287;51.644;8.494;2023-03-24T04:45:18;2.95;;;1.83;;
16354;SDS011;8287;51.644;8.494;2023-03-24T04:47:50;1.90;;;1.80;;
16354;SDS011;8287;51.644;8.494;2023-03-24T04:50:27;2.47;;;1.88;;
16354;SDS011;8287;51.644;8.494;2023-03-24T04:52:56;2.22;;;1.92;;
16354;SDS011;8287;51.644;8.494;2023-03-24T04:55:28;1.83;;;1.73;;
16354;SDS011;8287;51.644;8.494;2023-03-24T04:58:16;1.80;;;1.70;;
16354;SDS011;8287;51.644;8.494;2023-03-24T05:00:45;2.78;;;1.95;;
16354;SDS011;8287;51.644;8.494;2023-03-24T05:03:13;1.83;;;1.73;;
16354;SDS011;8287;51.644;8.494;2023-03-24T05:05:40;3.20;;;1.75;;
16354;SDS011;8287;51.644;8.494;2023-03-24T05:08:07;2.33;;;2.10;;
16354;SDS011;8287;51.644;8.494;2023-03-24T05:10:35;2.25;;;1.95;;
16354;SDS011;8287;51.644;8.494;2023-03-24T05:13:01;2.45;;;2.10;;
16354;SDS011;8287;51.644;8.494;2023-03-24T05:15:29;2.05;;;1.88;;
16354;SDS011;8287;51.644;8.494;2023-03-24T05:17:57;2.20;;;2.00;;
16354;SDS011;8287;51.644;8.494;2023-03-24T05:20:24;2.58;;;2.10;;
16354;SDS011;8287;51.644;8.494;2023-03-24T05:22:51;2.35;;;1.88;;
16354;SDS011;8287;51.644;8.494;2023-03-24T05:25:17;2.00;;;1.90;;
16354;SDS011;8287;51.644;8.494;2023-03-24T05:27:45;3.10;;;2.33;;
16354;SDS011;8287;51.644;8.494;2023-03-24T05:30:12;2.22;;;2.03;;
16354;SDS011;8287;51.644;8.494;2023-03-24T05:32:39;2.70;;;2.13;;
16354;SDS011;8287;51.644;8.494;2023-03-24T05:35:08;3.35;;;2.58;;
16354;SDS011;8287;51.644;8.494;2023-03-24T05:37:34;2.90;;;2.35;;
16354;SDS011;8287;51.644;8.494;2023-03-24T05:40:01;3.70;;;1.95;;
16354;SDS011;8287;51.644;8.494;2023-03-24T05:42:27;3.80;;;2.25;;
16354;SDS011;8287;51.644;8.494;2023-03-24T05:44:54;3.20;;;2.45;;
16354;SDS011;8287;51.644;8.494;2023-03-24T05:47:20;2.08;;;1.90;;
16354;SDS011;8287;51.644;8.494;2023-03-24T05:49:47;3.72;;;2.05;;
16354;SDS011;8287;51.644;8.494;2023-03-24T05:52:15;3.75;;;2.22;;
16354;SDS011;8287;51.644;8.494;2023-03-24T05:54:44;3.10;;;2.15;;
16354;SDS011;8287;51.644;8.494;2023-03-24T05:57:14;2.38;;;2.17;;
16354;SDS011;8287;51.644;8.494;2023-03-24T05:59:41;4.25;;;2.47;;
16354;SDS011;8287;51.644;8.494;2023-03-24T06:02:07;3.08;;;2.33;;
16354;SDS011;8287;51.644;8.494;2023-03-24T06:04:34;2.47;;;2.28;;
16354;SDS011;8287;51.644;8.494;2023-03-24T06:07:02;2.70;;;2.10;;
16354;SDS011;8287;51.644;8.494;2023-03-24T06:09:30;2.05;;;1.95;;
16354;SDS011;8287;51.644;8.494;2023-03-24T06:11:59;2.90;;;2.40;;
16354;SDS011;8287;51.644;8.494;2023-03-24T06:14:26;2.30;;;2.10;;
16354;SDS011;8287;51.644;8.494;2023-03-24T06:16:53;1.92;;;1.83;;
16354;SDS011;8287;51.644;8.494;2023-03-24T06:19:24;6.30;;;1.85;;
16354;SDS011;8287;51.644;8.494;2023-03-24T06:21:51;4.43;;;1.90;;
16354;SDS011;8287;51.644;8.494;2023-03-24T06:24:18;1.95;;;1.70;;
16354;SDS011;8287;51.644;8.494;2023-03-24T06:26:46;3.72;;;1.80;;
16354;SDS011;8287;51.644;8.494;2023-03-24T06:29:14;1.60;;;1.50;;
16354;SDS011;8287;51.644;8.494;2023-03-24T06:31:42;1.70;;;1.60;;
16354;SDS011;8287;51.644;8.494;2023-03-24T06:34:09;3.83;;;1.88;;
16354;SDS011;8287;51.644;8.494;2023-03-24T06:36:35;2.78;;;2.20;;
16354;SDS011;8287;51.644;8.494;2023-03-24T06:39:02;2.47;;;1.83;;
16354;SDS011;8287;51.644;8.494;2023-03-24T06:41:30;4.13;;;1.98;;
16354;SDS011;8287;51.644;8.494;2023-03-24T06:43:58;2.70;;;2.13;;
16354;SDS011;8287;51.644;8.494;2023-03-24T06:46:25;2.05;;;1.70;;
16354;SDS011;8287;51.644;8.494;2023-03-24T06:48:52;3.58;;;2.03;;
16354;SDS011;8287;51.644;8.494;2023-03-24T06:51:18;2.92;;;2.20;;
16354;SDS011;8287;51.644;8.494;2023-03-24T06:53:45;2.88;;;1.83;;
16354;SDS011;8287;51.644;8.494;2023-03-24T06:56:12;2.42;;;2.22;;
16354;SDS011;8287;51.644;8.494;2023-03-24T06:58:41;3.88;;;2.53;;
16354;SDS011;8287;51.644;8.494;2023-03-24T07:01:09;2.35;;;2.15;;
16354;SDS011;8287;51.644;8.494;2023-03-24T07:03:36;3.03;;;2.15;;
16354;SDS011;8287;51.644;8.494;2023-03-24T07:06:03;2.88;;;2.40;;
16354;SDS011;8287;51.644;8.494;2023-03-24T07:08:31;2.47;;;2.28;;
16354;SDS011;8287;51.644;8.494;2023-03-24T07:10:59;2.60;;;2.40;;
16354;SDS011;8287;51.644;8.494;2023-03-24T07:13:26;2.45;;;2.28;;
16354;SDS011;8287;51.644;8.494;2023-03-24T07:15:53;2.50;;;2.30;;
16354;SDS011;8287;51.644;8.494;2023-03-24T07:18:21;2.72;;;2.10;;
16354;SDS011;8287;51.644;8.494;2023-03-24T07:20:47;1.77;;;1.50;;
16354;SDS011;8287;51.644;8.494;2023-03-24T07:23:14;6.30;;;2.30;;
16354;SDS011;8287;51.644;8.494;2023-03-24T07:25:40;2.47;;;2.28;;
16354;SDS011;8287;51.644;8.494;2023-03-24T07:28:07;3.28;;;2.40;;
16354;SDS011;8287;51.644;8.494;2023-03-24T07:30:34;2.05;;;1.95;;
16354;SDS011;8287;51.644;8.494;2023-03-24T07:33:01;4.28;;;2.13;;
16354;SDS011;8287;51.644;8.494;2023-03-24T07:35:30;3.85;;;2.10;;
16354;SDS011;8287;51.644;8.494;2023-03-24T07:37:56;2.58;;;2.38;;
16354;SDS011;8287;51.644;8.494;2023-03-24T07:40:24;3.17;;;2.38;;
16354;SDS011;8287;51.644;8.494;2023-03-24T07:42:51;4.28;;;3.20;;
16354;SDS011;8287;51.644;8.494;2023-03-24T07:45:18;4.57;;;3.05;;
16354;SDS011;8287;51.644;8.494;2023-03-24T07:47:44;5.32;;;3.33;;
16354;SDS011;8287;51.644;8.494;2023-03-24T07:50:12;4.20;;;3.00;;
16354;SDS011;8287;51.644;8.494;2023-03-24T07:52:41;4.28;;;3.60;;
16354;SDS011;8287;51.644;8.494;2023-03-24T07:55:12;4.93;;;4.30;;
16354;SDS011;8287;51.644;8.494;2023-03-24T07:57:39;6.55;;;4.20;;
16354;SDS011;8287;51.644;8.494;2023-03-24T08:00:07;4.60;;;3.38;;
16354;SDS011;8287;51.644;8.494;2023-03-24T08:02:39;6.00;;;3.15;;
16354;SDS011;8287;51.644;8.494;2023-03-24T08:05:07;4.38;;;2.78;;
16354;SDS011;8287;51.644;8.494;2023-03-24T08:07:34;5.57;;;2.67;;
16354;SDS011;8287;51.644;8.494;2023-03-24T08:10:02;4.00;;;2.85;;
16354;SDS011;8287;51.644;8.494;2023-03-24T08:12:29;4.38;;;2.53;;
16354;SDS011;8287;51.644;8.494;2023-03-24T08:14:55;9.30;;;2.60;;
16354;SDS011;8287;51.644;8.494;2023-03-24T08:17:22;4.15;;;2.35;;
16354;SDS011;8287;51.644;8.494;2023-03-24T08:19:48;3.88;;;2.53;;
16354;SDS011;8287;51.644;8.494;2023-03-24T08:22:15;2.67;;;2.17;;
16354;SDS011;8287;51.644;8.494;2023-03-24T08:24:42;3.22;;;2.65;;
16354;SDS011;8287;51.644;8.494;2023-03-24T08:27:10;4.65;;;2.70;;
16354;SDS011;8287;51.644;8.494;2023-03-24T08:29:36;3.88;;;2.75;;
16354;SDS011;8287;51.644;8.494;2023-03-24T08:32:03;4.93;;;2.92;;
16354;SDS011;8287;51.644;8.494;2023-03-24T08:34:30;4.60;;;3.40;;
16354;SDS011;8287;51.644;8.494;2023-03-24T08:36:56;9.93;;;3.90;;
16354;SDS011;8287;51.644;8.494;2023-03-24T08:39:23;7.78;;;3.72;;
16354;SDS011;8287;51.644;8.494;2023-03-24T08:41:50;4.07;;;3.35;;
16354;SDS011;8287;51.644;8.494;2023-03-24T08:44:20;6.82;;;3.17;;
16354;SDS011;8287;51.644;8.494;2023-03-24T08:46:46;3.65;;;3.22;;
16354;SDS011;8287;51.644;8.494;2023-03-24T08:49:13;4.38;;;3.70;;
16354;SDS011;8287;51.644;8.494;2023-03-24T08:51:39;5.80;;;3.97;;
16354;SDS011;8287;51.644;8.494;2023-03-24T08:54:06;5.68;;;3.25;;
16354;SDS011;8287;51.644;8.494;2023-03-24T08:56:33;4.15;;;2.85;;
16354;SDS011;8287;51.644;8.494;2023-03-24T08:59:00;3.92;;;1.45;;
16354;SDS011;8287;51.644;8.494;2023-03-24T09:01:30;1.70;;;1.35;;
16354;SDS011;8287;51.644;8.494;2023-03-24T09:03:58;5.35;;;1.60;;
16354;SDS011;8287;51.644;8.494;2023-03-24T09:06:24;5.65;;;2.42;;
16354;SDS011;8287;51.644;8.494;2023-03-24T09:08:51;4.30;;;1.20;;
16354;SDS011;8287;51.644;8.494;2023-03-24T09:11:19;5.18;;;1.55;;
16354;SDS011;8287;51.644;8.494;2023-03-24T09:13:47;4.15;;;1.63;;
16354;SDS011;8287;51.644;8.494;2023-03-24T09:16:14;6.38;;;2.08;;
16354;SDS011;8287;51.644;8.494;2023-03-24T09:18:43;6.57;;;1.33;;
16354;SDS011;8287;51.644;8.494;2023-03-24T09:21:10;2.45;;;1.05;;
16354;SDS011;8287;51.644;8.494;2023-03-24T09:23:37;7.25;;;2.00;;
16354;SDS011;8287;51.644;8.494;2023-03-24T09:26:04;3.80;;;1.33;;
16354;SDS011;8287;51.644;8.494;2023-03-24T09:28:31;4.68;;;1.10;;
16354;SDS011;8287;51.644;8.494;2023-03-24T09:30:59;4.13;;;1.25;;
16354;SDS011;8287;51.644;8.494;2023-03-24T09:33:26;5.70;;;1.92;;
16354;SDS011;8287;51.644;8.494;2023-03-24T09:35:56;6.72;;;1.58;;
16354;SDS011;8287;51.644;8.494;2023-03-24T09:38:24;5.80;;;1.42;;
16354;SDS011;8287;51.644;8.494;2023-03-24T09:40:53;3.47;;;1.38;;
16354;SDS011;8287;51.644;8.494;2023-03-24T09:43:23;6.07;;;2.00;;
16354;SDS011;8287;51.644;8.494;2023-03-24T09:45:56;4.15;;;1.55;;
16354;SDS011;8287;51.644;8.494;2023-03-24T09:48:27;2.88;;;1.27;;
16354;SDS011;8287;51.644;8.494;2023-03-24T09:51:01;3.88;;;1.27;;
16354;SDS011;8287;51.644;8.494;2023-03-24T09:53:33;4.60;;;1.48;;
16354;SDS011;8287;51.644;8.494;2023-03-24T09:56:09;5.93;;;1.58;;
16354;SDS011;8287;51.644;8.494;2023-03-24T09:58:38;2.20;;;1.20;;
16354;SDS011;8287;51.644;8.494;2023-03-24T10:01:08;2.35;;;1.25;;
16354;SDS011;8287;51.644;8.494;2023-03-24T10:03:38;2.72;;;1.40;;
16354;SDS011;8287;51.644;8.494;2023-03-24T10:06:08;6.55;;;1.30;;
16354;SDS011;8287;51.644;8.494;2023-03-24T10:08:39;7.72;;;0.98;;
16354;SDS011;8287;51.644;8.494;2023-03-24T10:11:10;7.45;;;1.20;;
16354;SDS011;8287;51.644;8.494;2023-03-24T10:13:47;4.68;;;1.60;;
16354;SDS011;8287;51.644;8.494;2023-03-24T10:16:25;9.35;;;1.50;;
16354;SDS011;8287;51.644;8.494;2023-03-24T10:18:58;3.67;;;1.30;;
16354;SDS011;8287;51.644;8.494;2023-03-24T10:21:35;6.15;;;1.75;;
16354;SDS011;8287;51.644;8.494;2023-03-24T10:24:05;6.05;;;1.48;;
16354;SDS011;8287;51.644;8.494;2023-03-24T10:26:44;6.15;;;1.98;;
16354;SDS011;8287;51.644;8.494;2023-03-24T10:29:21;5.07;;;1.45;;
16354;SDS011;8287;51.644;8.494;2023-03-24T10:31:53;4.25;;;1.08;;
16354;SDS011;8287;51.644;8.494;2023-03-24T10:34:25;4.63;;;1.65;;
16354;SDS011;8287;51.644;8.494;2023-03-24T10:36:57;9.18;;;1.60;;
16354;SDS011;8287;51.644;8.494;2023-03-24T10:39:27;3.92;;;1.40;;
16354;SDS011;8287;51.644;8.494;2023-03-24T10:41:54;3.58;;;1.70;;
16354;SDS011;8287;51.644;8.494;2023-03-24T10:44:24;4.40;;;1.70;;
16354;SDS011;8287;51.644;8.494;2023-03-24T10:46:52;7.85;;;1.70;;
16354;SDS011;8287;51.644;8.494;2023-03-24T10:49:22;6.55;;;1.92;;
16354;SDS011;8287;51.644;8.494;2023-03-24T10:51:50;4.70;;;1.85;;
16354;SDS011;8287;51.644;8.494;2023-03-24T10:54:22;11.65;;;2.25;;
16354;SDS011;8287;51.644;8.494;2023-03-24T10:56:51;6.63;;;1.13;;
16354;SDS011;8287;51.644;8.494;2023-03-24T10:59:27;6.05;;;1.88;;
16354;SDS011;8287;51.644;8.494;2023-03-24T11:01:57;4.70;;;1.58;;
16354;SDS011;8287;51.644;8.494;2023-03-24T11:04:26;8.52;;;2.45;;
16354;SDS011;8287;51.644;8.494;2023-03-24T11:06:59;7.75;;;1.90;;
16354;SDS011;8287;51.644;8.494;2023-03-24T11:09:31;4.53;;;2.00;;
16354;SDS011;8287;51.644;8.494;2023-03-24T11:12:05;7.47;;;2.35;;
16354;SDS011;8287;51.644;8.494;2023-03-24T11:14:46;4.70;;;1.98;;
16354;SDS011;8287;51.644;8.494;2023-03-24T11:17:13;6.47;;;1.58;;
16354;SDS011;8287;51.644;8.494;2023-03-24T11:19:49;7.80;;;2.42;;
16354;SDS011;8287;51.644;8.494;2023-03-24T11:22:16;4.95;;;2.35;;
16354;SDS011;8287;51.644;8.494;2023-03-24T11:24:44;4.57;;;1.67;;
16354;SDS011;8287;51.644;8.494;2023-03-24T11:27:14;5.85;;;2.13;;
16354;SDS011;8287;51.644;8.494;2023-03-24T11:29:42;4.78;;;2.05;;
16354;SDS011;8287;51.644;8.494;2023-03-24T11:32:17;8.27;;;1.98;;
16354;SDS011;8287;51.644;8.494;2023-03-24T11:34:54;3.58;;;1.52;;
16354;SDS011;8287;51.644;8.494;2023-03-24T11:37:28;5.57;;;2.03;;
16354;SDS011;8287;51.644;8.494;2023-03-24T11:43:00;3.80;;;1.73;;
16354;SDS011;8287;51.644;8.494;2023-03-24T11:45:35;6.47;;;2.00;;
16354;SDS011;8287;51.644;8.494;2023-03-24T11:48:10;7.95;;;1.70;;
16354;SDS011;8287;51.644;8.494;2023-03-24T11:50:50;7.93;;;2.22;;
16354;SDS011;8287;51.644;8.494;2023-03-24T11:53:20;7.90;;;2.03;;
16354;SDS011;8287;51.644;8.494;2023-03-24T11:55:56;5.88;;;1.55;;
16354;SDS011;8287;51.644;8.494;2023-03-24T11:58:32;3.72;;;1.55;;
16354;SDS011;8287;51.644;8.494;2023-03-24T12:01:05;5.72;;;1.50;;
16354;SDS011;8287;51.644;8.494;2023-03-24T12:03:42;6.68;;;2.15;;
16354;SDS011;8287;51.644;8.494;2023-03-24T12:06:44;6.28;;;1.95;;
16354;SDS011;8287;51.644;8.494;2023-03-24T12:09:26;5.97;;;1.98;;
16354;SDS011;8287;51.644;8.494;2023-03-24T12:12:10;5.50;;;2.05;;
16354;SDS011;8287;51.644;8.494;2023-03-24T12:15:02;3.50;;;1.80;;
16354;SDS011;8287;51.644;8.494;2023-03-24T12:17:55;6.93;;;2.20;;
16354;SDS011;8287;51.644;8.494;2023-03-24T12:20:33;4.97;;;1.85;;
16354;SDS011;8287;51.644;8.494;2023-03-24T12:23:56;5.18;;;1.75;;
16354;SDS011;8287;51.644;8.494;2023-03-24T12:26:28;5.40;;;1.85;;
16354;SDS011;8287;51.644;8.494;2023-03-24T12:35:04;4.07;;;1.42;;
16354;SDS011;8287;51.644;8.494;2023-03-24T12:37:48;2.42;;;1.30;;
16354;SDS011;8287;51.644;8.494;2023-03-24T12:40:39;5.88;;;1.75;;
16354;SDS011;8287;51.644;8.494;2023-03-24T12:43:26;8.20;;;1.58;;
16354;SDS011;8287;51.644;8.494;2023-03-24T12:46:02;5.85;;;2.03;;
16354;SDS011;8287;51.644;8.494;2023-03-24T12:48:46;8.68;;;1.80;;
16354;SDS011;8287;51.644;8.494;2023-03-24T12:51:31;3.60;;;1.52;;
16354;SDS011;8287;51.644;8.494;2023-03-24T12:54:11;4.20;;;1.27;;
16354;SDS011;8287;51.644;8.494;2023-03-24T12:56:54;3.83;;;2.20;;
16354;SDS011;8287;51.644;8.494;2023-03-24T12:59:25;3.83;;;1.48;;
16354;SDS011;8287;51.644;8.494;2023-03-24T13:02:02;4.93;;;1.75;;
16354;SDS011;8287;51.644;8.494;2023-03-24T13:04:43;4.75;;;1.77;;
16354;SDS011;8287;51.644;8.494;2023-03-24T13:07:15;4.85;;;1.30;;
16354;SDS011;8287;51.644;8.494;2023-03-24T13:09:45;4.53;;;1.55;;
16354;SDS011;8287;51.644;8.494;2023-03-24T13:12:18;7.00;;;1.70;;
16354;SDS011;8287;51.644;8.494;2023-03-24T13:14:50;3.50;;;1.60;;
16354;SDS011;8287;51.644;8.494;2023-03-24T13:17:23;5.47;;;1.60;;
16354;SDS011;8287;51.644;8.494;2023-03-24T13:19:55;5.78;;;1.88;;
16354;SDS011;8287;51.644;8.494;2023-03-24T13:22:23;5.35;;;1.42;;
16354;SDS011;8287;51.644;8.494;2023-03-24T13:24:52;6.65;;;1.67;;
16354;SDS011;8287;51.644;8.494;2023-03-24T13:27:22;3.10;;;1.25;;
16354;SDS011;8287;51.644;8.494;2023-03-24T13:29:58;5.45;;;1.23;;
16354;SDS011;8287;51.644;8.494;2023-03-24T13:32:30;7.50;;;1.80;;
16354;SDS011;8287;51.644;8.494;2023-03-24T13:35:04;4.18;;;1.60;;
16354;SDS011;8287;51.644;8.494;2023-03-24T13:37:39;3.65;;;1.58;;
16354;SDS011;8287;51.644;8.494;2023-03-24T13:40:17;4.47;;;1.73;;
16354;SDS011;8287;51.644;8.494;2023-03-24T13:42:46;8.27;;;1.63;;
16354;SDS011;8287;51.644;8.494;2023-03-24T13:45:24;3.97;;;1.40;;
16354;SDS011;8287;51.644;8.494;2023-03-24T13:48:02;3.08;;;1.13;;
16354;SDS011;8287;51.644;8.494;2023-03-24T13:50:41;1.55;;;1.30;;
16354;SDS011;8287;51.644;8.494;2023-03-24T13:53:18;5.78;;;1.80;;
16354;SDS011;8287;51.644;8.494;2023-03-24T13:55:55;2.83;;;1.58;;
16354;SDS011;8287;51.644;8.494;2023-03-24T13:58:24;4.75;;;1.50;;
16354;SDS011;8287;51.644;8.494;2023-03-24T14:01:11;5.65;;;1.63;;
16354;SDS011;8287;51.644;8.494;2023-03-24T14:03:42;6.30;;;1.65;;
16354;SDS011;8287;51.644;8.494;2023-03-24T14:06:11;5.90;;;1.38;;
16354;SDS011;8287;51.644;8.494;2023-03-24T14:08:43;5.45;;;1.30;;
16354;SDS011;8287;51.644;8.494;2023-03-24T14:14:33;5.28;;;1.55;;
16354;SDS011;8287;51.644;8.494;2023-03-24T14:17:05;3.03;;;1.30;;
16354;SDS011;8287;51.644;8.494;2023-03-24T14:19:37;5.85;;;1.85;;
16354;SDS011;8287;51.644;8.494;2023-03-24T14:22:12;6.00;;;1.70;;
16354;SDS011;8287;51.644;8.494;2023-03-24T14:24:40;5.70;;;1.90;;
16354;SDS011;8287;51.644;8.494;2023-03-24T14:27:20;3.45;;;1.27;;
16354;SDS011;8287;51.644;8.494;2023-03-24T14:29:58;3.63;;;1.70;;
16354;SDS011;8287;51.644;8.494;2023-03-24T14:32:28;4.65;;;1.38;;
16354;SDS011;8287;51.644;8.494;2023-03-24T14:34:55;1.95;;;1.17;;
16354;SDS011;8287;51.644;8.494;2023-03-24T14:37:25;3.67;;;1.13;;
16354;SDS011;8287;51.644;8.494;2023-03-24T14:39:54;1.75;;;1.08;;
16354;SDS011;8287;51.644;8.494;2023-03-24T14:42:26;4.00;;;1.10;;
16354;SDS011;8287;51.644;8.494;2023-03-24T14:48:21;5.20;;;1.38;;
16354;SDS011;8287;51.644;8.494;2023-03-24T14:50:52;5.22;;;1.50;;
16354;SDS011;8287;51.644;8.494;2023-03-24T14:53:21;1.17;;;0.73;;
16354;SDS011;8287;51.644;8.494;2023-03-24T14:55:48;3.25;;;0.90;;
16354;SDS011;8287;51.644;8.494;2023-03-24T14:58:18;2.28;;;1.10;;
16354;SDS011;8287;51.644;8.494;2023-03-24T15:00:49;9.27;;;1.67;;
16354;SDS011;8287;51.644;8.494;2023-03-24T15:03:20;4.20;;;1.55;;
16354;SDS011;8287;51.644;8.494;2023-03-24T15:05:52;4.60;;;1.92;;
16354;SDS011;8287;51.644;8.494;2023-03-24T15:08:21;2.60;;;1.30;;
16354;SDS011;8287;51.644;8.494;2023-03-24T15:10:50;6.38;;;1.52;;
16354;SDS011;8287;51.644;8.494;2023-03-24T15:13:25;3.22;;;1.38;;
16354;SDS011;8287;51.644;8.494;2023-03-24T15:15:54;3.17;;;1.90;;
16354;SDS011;8287;51.644;8.494;2023-03-24T15:18:21;3.25;;;1.75;;
16354;SDS011;8287;51.644;8.494;2023-03-24T15:20:49;4.38;;;1.35;;
16354;SDS011;8287;51.644;8.494;2023-03-24T15:23:18;3.90;;;2.08;;
16354;SDS011;8287;51.644;8.494;2023-03-24T15:25:47;4.97;;;1.63;;
16354;SDS011;8287;51.644;8.494;2023-03-24T15:28:16;2.92;;;1.45;;
16354;SDS011;8287;51.644;8.494;2023-03-24T15:30:45;4.10;;;1.45;;
16354;SDS011;8287;51.644;8.494;2023-03-24T15:33:12;2.72;;;1.52;;
16354;SDS011;8287;51.644;8.494;2023-03-24T15:35:39;4.30;;;1.65;;
16354;SDS011;8287;51.644;8.494;2023-03-24T15:38:06;3.50;;;1.10;;
16354;SDS011;8287;51.644;8.494;2023-03-24T15:40:52;4.63;;;0.82;;
16354;SDS011;8287;51.644;8.494;2023-03-24T15:43:21;2.22;;;0.93;;
16354;SDS011;8287;51.644;8.494;2023-03-24T15:45:49;2.38;;;0.63;;
16354;SDS011;8287;51.644;8.494;2023-03-24T15:48:18;1.88;;;0.80;;
16354;SDS011;8287;51.644;8.494;2023-03-24T15:50:55;1.65;;;0.70;;
16354;SDS011;8287;51.644;8.494;2023-03-24T15:53:25;1.48;;;0.77;;